Time;durP1;ratioP1;P1;durP2;ratioP2;P2;SDS_P1;SDS_P2;PMS_P1;PMS_P2;Temp;Humidity;BMP_temperature;BMP_pressure;BME280_temperature;BME280_humidity;BME280_pressure;Samples;Min_cycle;Max_cycle;Signal;HPM_P1;HPM_P2
2022/10/23 00:00:28;;;;;;;17.00;8.23;;;;;;;24.64;100.00;101209.00;4991443;28;20284;-52
2022/10/23 00:02:55;;;;;;;20.43;8.17;;;;;;;24.26;100.00;101208.66;4995040;28;20049;-49
2022/10/23 00:05:21;;;;;;;22.17;8.07;;;;;;;24.68;100.00;101212.84;4993209;28;20265;-53
2022/10/23 00:07:52;;;;;;;17.13;8.43;;;;;;;24.80;100.00;101195.28;5000232;28;20269;-53
2022/10/23 00:10:19;;;;;;;21.37;8.00;;;;;;;24.81;100.00;101194.19;4992378;28;20027;-49
2022/10/23 00:12:45;;;;;;;23.73;8.90;;;;;;;24.64;100.00;101198.06;4991785;28;20276;-53
2022/10/23 00:15:10;;;;;;;21.75;8.50;;;;;;;24.71;100.00;101193.13;4992218;28;20272;-49
2022/10/23 00:17:37;;;;;;;14.65;7.78;;;;;;;24.67;100.00;101202.97;4994523;28;20073;-48
2022/10/23 00:20:04;;;;;;;22.67;11.80;;;;;;;24.60;100.00;101200.56;4993506;28;20058;-49
2022/10/23 00:22:29;;;;;;;22.20;9.10;;;;;;;24.57;100.00;101189.38;4990078;28;20039;-49
2022/10/23 00:24:55;;;;;;;20.55;9.18;;;;;;;24.44;100.00;101201.75;4989875;28;20264;-50
2022/10/23 00:27:20;;;;;;;16.50;8.27;;;;;;;24.28;100.00;101190.88;5002776;28;20109;-52
2022/10/23 00:29:45;;;;;;;25.93;8.87;;;;;;;24.25;100.00;101190.63;4990630;28;20035;-47
2022/10/23 00:32:11;;;;;;;21.98;8.65;;;;;;;24.34;100.00;101197.13;5002642;28;20042;-48
2022/10/23 00:34:37;;;;;;;15.38;8.90;;;;;;;24.40;100.00;101198.75;5001837;28;20027;-54
2022/10/23 00:37:02;;;;;;;23.08;9.65;;;;;;;24.49;100.00;101199.81;5005801;28;20041;-50
2022/10/23 00:39:28;;;;;;;12.63;8.32;;;;;;;24.65;100.00;101194.22;5002796;28;20051;-49
2022/10/23 00:41:54;;;;;;;14.57;8.00;;;;;;;24.65;100.00;101193.44;5031241;28;20035;-49
2022/10/23 00:44:20;;;;;;;12.90;8.13;;;;;;;24.59;100.00;101190.72;5000756;28;20042;-49
2022/10/23 00:46:45;;;;;;;19.50;8.63;;;;;;;24.52;100.00;101186.66;5022764;28;20034;-50
2022/10/23 00:49:12;;;;;;;15.57;8.82;;;;;;;24.63;100.00;101194.53;5010507;28;20053;-49
2022/10/23 00:51:40;;;;;;;16.10;8.45;;;;;;;24.47;100.00;101190.25;5001875;28;20077;-50
2022/10/23 00:54:07;;;;;;;22.90;7.90;;;;;;;24.47;100.00;101191.06;5005175;28;20027;-49
2022/10/23 00:56:36;;;;;;;21.17;9.13;;;;;;;24.55;100.00;101197.84;4995973;28;20280;-49
2022/10/23 00:59:02;;;;;;;20.70;8.80;;;;;;;24.56;100.00;101207.66;5010656;28;20268;-53
2022/10/23 01:01:27;;;;;;;15.68;8.05;;;;;;;24.57;100.00;101198.41;5002491;28;20279;-47
2022/10/23 01:03:53;;;;;;;17.80;8.50;;;;;;;24.65;100.00;101202.44;5001133;28;20062;-47
2022/10/23 01:06:32;;;;;;;26.33;9.23;;;;;;;24.27;100.00;101191.16;5005404;28;20102;-49
2022/10/23 01:09:25;;;;;;;23.43;8.70;;;;;;;24.22;100.00;101193.91;4996490;28;20265;-51
2022/10/23 01:11:59;;;;;;;20.30;9.60;;;;;;;24.55;100.00;101189.63;5005815;28;20277;-54
2022/10/23 01:14:39;;;;;;;14.80;8.53;;;;;;;24.41;100.00;101183.97;5002620;28;20332;-48
2022/10/23 01:17:09;;;;;;;17.40;8.77;;;;;;;24.31;100.00;101184.03;4992378;28;20273;-50
2022/10/23 01:20:16;;;;;;;17.67;8.00;;;;;;;24.30;100.00;101182.41;5040423;28;20293;-50
2022/10/23 01:22:59;;;;;;;16.33;7.67;;;;;;;24.27;100.00;101177.50;4994750;28;20284;-47
2022/10/23 01:25:33;;;;;;;22.93;8.87;;;;;;;24.04;100.00;101177.84;5002515;28;20300;-47
2022/10/23 01:28:03;;;;;;;21.13;8.70;;;;;;;24.25;100.00;101174.22;5001282;28;20290;-51
2022/10/23 01:30:32;;;;;;;19.87;8.33;;;;;;;24.41;100.00;101174.97;5008738;28;20284;-48
2022/10/23 01:33:05;;;;;;;21.70;9.07;;;;;;;24.42;100.00;101171.94;5002222;28;20279;-50
2022/10/23 01:36:03;;;;;;;20.00;8.47;;;;;;;24.47;100.00;101176.56;5017646;28;20275;-48
2022/10/23 01:38:39;;;;;;;18.43;8.50;;;;;;;24.69;100.00;101173.44;5000578;28;20375;-49
2022/10/23 01:41:41;;;;;;;29.03;9.37;;;;;;;24.29;100.00;101170.63;5030183;28;20317;-52
2022/10/23 01:44:18;;;;;;;22.40;8.03;;;;;;;24.28;100.00;101173.66;5015645;28;20273;-50
2022/10/23 01:46:47;;;;;;;17.73;8.73;;;;;;;23.75;100.00;101172.16;5013080;28;20288;-53
2022/10/23 01:49:14;;;;;;;17.73;9.17;;;;;;;23.83;100.00;101170.78;5008574;28;20332;-52
2022/10/23 01:51:50;;;;;;;15.47;9.00;;;;;;;24.05;100.00;101163.09;5050113;28;20274;-51
2022/10/23 01:54:19;;;;;;;22.67;8.50;;;;;;;24.33;100.00;101159.97;5066443;28;20286;-49
2022/10/23 01:56:47;;;;;;;19.17;8.33;;;;;;;23.84;100.00;101158.75;5065303;28;20278;-55
2022/10/23 01:59:20;;;;;;;23.77;9.20;;;;;;;24.07;100.00;101151.91;5067175;28;20303;-51
2022/10/23 02:01:50;;;;;;;17.20;8.33;;;;;;;24.11;100.00;101146.69;5064926;28;20293;-50
2022/10/23 02:04:23;;;;;;;23.90;9.13;;;;;;;24.06;100.00;101134.69;5066372;28;20298;-49
2022/10/23 02:06:49;;;;;;;20.20;8.83;;;;;;;24.10;100.00;101126.75;5067930;28;20277;-52
2022/10/23 02:09:15;;;;;;;20.05;8.95;;;;;;;24.16;100.00;101128.34;5065342;28;20314;-50
2022/10/23 02:11:52;;;;;;;30.97;9.43;;;;;;;24.05;100.00;101121.31;5068612;28;20100;-49
2022/10/23 02:14:30;;;;;;;23.67;9.97;;;;;;;23.71;100.00;101127.41;5065852;28;20273;-49
2022/10/23 02:17:10;;;;;;;24.97;9.93;;;;;;;23.90;100.00;101122.97;5064838;28;20278;-53
2022/10/23 02:19:54;;;;;;;24.27;9.57;;;;;;;24.27;100.00;101122.84;5063176;28;20278;-49
2022/10/23 02:22:37;;;;;;;21.07;10.20;;;;;;;23.78;100.00;101117.03;5065466;28;20285;-53
2022/10/23 02:25:15;;;;;;;20.63;9.57;;;;;;;23.79;100.00;101121.38;5064008;28;20306;-49
2022/10/23 02:27:53;;;;;;;20.53;10.10;;;;;;;23.61;100.00;101114.59;5067902;28;20306;-52
2022/10/23 02:30:21;;;;;;;21.13;10.20;;;;;;;23.81;100.00;101111.00;5063291;28;20266;-50
2022/10/23 02:33:02;;;;;;;23.07;10.63;;;;;;;23.92;100.00;101111.78;5065386;28;20266;-48
2022/10/23 02:35:28;;;;;;;20.33;10.33;;;;;;;24.43;100.00;101118.09;5068495;28;20269;-52
2022/10/23 02:38:02;;;;;;;22.43;10.53;;;;;;;24.17;100.00;101113.59;5070579;28;20278;-50
2022/10/23 02:40:40;;;;;;;28.27;11.43;;;;;;;24.26;100.00;101110.28;5064015;28;20289;-49
2022/10/23 02:43:24;;;;;;;23.05;9.65;;;;;;;24.00;100.00;101113.13;5063333;28;20270;-47
2022/10/23 02:46:03;;;;;;;18.47;11.23;;;;;;;23.68;100.00;101109.69;5066260;28;20080;-48
2022/10/23 02:48:37;;;;;;;25.53;11.00;;;;;;;23.65;100.00;101095.75;5051585;28;20274;-52
2022/10/23 02:51:28;;;;;;;23.90;11.07;;;;;;;23.80;100.00;101106.63;5033595;28;20265;-49
2022/10/23 02:54:04;;;;;;;23.73;10.23;;;;;;;24.30;100.00;101103.16;5036776;28;20281;-52
2022/10/23 02:57:00;;;;;;;31.27;11.53;;;;;;;23.46;100.00;101094.44;5025287;28;20300;-51
2022/10/23 02:59:44;;;;;;;29.00;11.33;;;;;;;23.74;100.00;101094.06;5003632;28;20299;-50
2022/10/23 03:02:27;;;;;;;24.77;11.07;;;;;;;23.85;100.00;101092.97;5028102;28;20269;-48
2022/10/23 03:04:57;;;;;;;24.60;11.10;;;;;;;23.77;100.00;101094.34;4998972;28;20279;-50
2022/10/23 03:07:24;;;;;;;24.50;10.10;;;;;;;23.82;100.00;101082.59;5009434;28;20265;-47
2022/10/23 03:09:56;;;;;;;24.97;10.83;;;;;;;23.74;100.00;101072.22;5031517;28;20287;-49
2022/10/23 03:12:22;;;;;;;27.67;12.03;;;;;;;23.78;100.00;101067.88;5016655;28;20285;-48
2022/10/23 03:14:48;;;;;;;22.13;9.45;;;;;;;23.90;100.00;101056.63;5020920;28;20065;-47
2022/10/23 03:17:14;;;;;;;17.88;10.73;;;;;;;23.67;100.00;101050.72;5025076;28;20035;-49
2022/10/23 03:19:40;;;;;;;15.07;9.32;;;;;;;23.82;100.00;101049.81;5014403;28;20038;-54
2022/10/23 03:22:05;;;;;;;19.00;10.17;;;;;;;23.91;100.00;101050.88;5006860;28;20030;-47
2022/10/23 03:24:30;;;;;;;21.27;10.93;;;;;;;23.92;100.00;101057.16;5017283;28;20279;-53
2022/10/23 03:26:56;;;;;;;23.48;9.45;;;;;;;23.94;100.00;101054.13;5027004;28;20277;-50
2022/10/23 03:29:28;;;;;;;22.63;9.67;;;;;;;23.98;100.00;101045.09;5026832;28;20046;-49
2022/10/23 03:31:54;;;;;;;21.15;10.13;;;;;;;24.09;100.00;101045.06;5010924;28;20276;-49
2022/10/23 03:34:20;;;;;;;23.88;9.93;;;;;;;24.13;100.00;101049.69;5004306;28;20108;-53
2022/10/23 03:36:46;;;;;;;18.63;9.45;;;;;;;24.20;100.00;101038.44;5033359;28;20035;-50
2022/10/23 03:39:12;;;;;;;24.40;9.53;;;;;;;24.19;100.00;101034.09;5007258;28;20042;-53
2022/10/23 03:41:40;;;;;;;18.10;10.63;;;;;;;24.06;100.00;101030.06;5036601;28;20272;-51
2022/10/23 03:44:06;;;;;;;23.27;10.13;;;;;;;23.86;100.00;101026.31;5038711;28;20284;-50
2022/10/23 03:46:31;;;;;;;25.93;9.03;;;;;;;23.71;100.00;101027.22;4999985;28;20062;-52
2022/10/23 03:48:58;;;;;;;19.87;8.70;;;;;;;24.02;100.00;101018.09;5016009;28;20273;-47
2022/10/23 03:51:24;;;;;;;16.25;8.73;;;;;;;23.68;100.00;101016.03;5055685;28;20117;-50
2022/10/23 03:53:50;;;;;;;17.42;8.73;;;;;;;23.78;100.00;101019.53;5063546;28;20040;-50
2022/10/23 03:56:15;;;;;;;21.98;8.90;;;;;;;23.89;100.00;101014.03;5066158;28;20037;-52
2022/10/23 03:58:43;;;;;;;18.47;8.80;;;;;;;23.72;100.00;101011.63;5065139;28;20078;-52
2022/10/23 04:01:09;;;;;;;25.77;9.13;;;;;;;23.76;100.00;100997.16;5066529;28;20282;-48
2022/10/23 04:03:35;;;;;;;21.60;8.40;;;;;;;24.11;100.00;101002.72;5064416;28;20025;-52
2022/10/23 04:06:01;;;;;;;22.63;8.67;;;;;;;23.93;100.00;101001.44;5062085;28;20324;-48
2022/10/23 04:08:26;;;;;;;18.87;8.57;;;;;;;23.88;100.00;100996.00;5066570;28;20101;-51
2022/10/23 04:10:53;;;;;;;17.70;7.87;;;;;;;23.82;100.00;100992.50;5065628;28;20025;-49
2022/10/23 04:13:24;;;;;;;14.57;7.83;;;;;;;23.91;100.00;100996.25;5067559;28;20286;-48
2022/10/23 04:15:52;;;;;;;15.43;7.65;;;;;;;23.57;100.00;100988.78;5064247;28;20278;-52
2022/10/23 04:18:18;;;;;;;18.83;7.80;;;;;;;23.78;100.00;100977.78;5064369;28;20060;-49
2022/10/23 04:20:49;;;;;;;16.83;7.70;;;;;;;24.06;100.00;100992.63;5063074;28;20347;-49
2022/10/23 04:23:15;;;;;;;23.03;8.00;;;;;;;24.12;100.00;100985.22;5068002;28;20277;-50
2022/10/23 04:25:43;;;;;;;14.80;7.07;;;;;;;24.13;100.00;100984.13;5065297;28;20286;-51
2022/10/23 04:28:08;;;;;;;15.73;7.75;;;;;;;24.22;100.00;100984.34;5064076;28;20309;-50
2022/10/23 04:30:37;;;;;;;20.40;7.47;;;;;;;24.34;100.00;100975.78;5068502;28;20031;-46
2022/10/23 04:33:04;;;;;;;13.93;7.30;;;;;;;24.13;100.00;100970.47;5061555;28;20350;-49
2022/10/23 04:35:30;;;;;;;25.63;7.47;;;;;;;24.06;100.00;100976.25;5062092;28;20271;-47
2022/10/23 04:37:55;;;;;;;15.47;6.97;;;;;;;24.03;100.00;100970.56;5063276;28;20096;-51
2022/10/23 04:40:22;;;;;;;16.30;6.90;;;;;;;24.13;100.00;100967.72;5066335;28;20098;-53
2022/10/23 04:42:49;;;;;;;24.50;7.43;;;;;;;24.00;100.00;100969.16;5068561;28;20273;-51
2022/10/23 04:45:15;;;;;;;17.35;7.03;;;;;;;23.87;100.00;100969.78;5065529;28;20267;-53
2022/10/23 04:47:41;;;;;;;12.43;6.47;;;;;;;23.88;100.00;100963.25;5063773;28;20067;-51
2022/10/23 04:50:08;;;;;;;18.30;7.20;;;;;;;23.99;100.00;100967.53;5052889;28;20297;-53
2022/10/23 04:53:08;;;;;;;15.13;6.63;;;;;;;23.95;100.00;100962.91;5002253;28;20247;-52
2022/10/23 04:55:56;;;;;;;13.77;6.70;;;;;;;24.23;100.00;100964.13;5006168;28;20362;-50
2022/10/23 04:58:29;;;;;;;;;;;;;;;24.04;100.00;100966.72;5018572;28;20272;-52
2022/10/23 05:00:57;;;;;;;21.80;7.30;;;;;;;24.25;100.00;100955.66;5023429;28;19947;-53
2022/10/23 05:03:24;;;;;;;19.03;7.30;;;;;;;24.92;100.00;100949.59;5020220;28;20273;-53
2022/10/23 05:05:54;;;;;;;17.33;7.07;;;;;;;24.26;100.00;100941.69;5032451;28;20276;-51
2022/10/23 05:08:28;;;;;;;15.27;6.47;;;;;;;24.88;100.00;100956.72;5015503;28;20035;-52
2022/10/23 05:11:13;;;;;;;19.50;7.10;;;;;;;24.85;100.00;100952.66;4987777;28;20273;-54
2022/10/23 05:13:45;;;;;;;18.47;7.17;;;;;;;24.99;100.00;100950.03;5027597;28;20264;-52
2022/10/23 05:16:20;;;;;;;21.03;7.93;;;;;;;24.78;100.00;100954.91;5010244;28;20275;-48
2022/10/23 05:18:47;;;;;;;17.70;7.10;;;;;;;24.41;100.00;100959.06;4996436;28;20272;-53
2022/10/23 05:21:20;;;;;;;14.75;7.05;;;;;;;24.55;100.00;100957.28;5032275;28;20281;-55
2022/10/23 05:23:49;;;;;;;14.47;6.70;;;;;;;24.44;100.00;100947.56;5018524;28;20102;-53
2022/10/23 05:26:15;;;;;;;12.60;7.30;;;;;;;24.51;100.00;100949.97;5012241;28;20273;-53
2022/10/23 05:28:43;;;;;;;16.77;7.37;;;;;;;24.09;100.00;100946.72;5028813;28;20292;-50
2022/10/23 05:31:15;;;;;;;12.40;6.50;;;;;;;24.32;100.00;100939.72;5022630;28;20261;-52
2022/10/23 05:33:44;;;;;;;22.27;7.67;;;;;;;24.34;100.00;100943.81;5016385;28;20288;-49
2022/10/23 05:36:12;;;;;;;18.80;7.18;;;;;;;24.43;100.00;100941.25;5009423;28;20268;-49
2022/10/23 05:38:38;;;;;;;13.80;6.23;;;;;;;24.32;100.00;100943.25;5009045;28;20038;-53
2022/10/23 05:41:11;;;;;;;19.03;6.47;;;;;;;23.94;100.00;100936.69;5006975;28;20284;-49
2022/10/23 05:43:36;;;;;;;18.45;7.78;;;;;;;24.44;100.00;100937.41;5022922;28;20291;-53
2022/10/23 05:46:08;;;;;;;17.23;7.07;;;;;;;24.74;100.00;100937.41;4997651;28;20039;-51
2022/10/23 05:48:52;;;;;;;19.23;6.90;;;;;;;24.72;100.00;100935.00;5001632;28;20384;-52
2022/10/23 05:51:39;;;;;;;13.37;6.43;;;;;;;24.75;100.00;100939.06;5000309;28;20340;-52
2022/10/23 05:54:20;;;;;;;16.90;7.73;;;;;;;24.65;100.00;100931.75;5008544;28;20284;-48
2022/10/23 05:57:02;;;;;;;15.80;6.87;;;;;;;24.58;100.00;100925.81;5005274;28;20276;-48
2022/10/23 05:59:31;;;;;;;12.00;7.13;;;;;;;24.24;100.00;100923.97;5017667;28;20273;-48
2022/10/23 06:02:02;;;;;;;14.50;7.30;;;;;;;24.09;100.00;100920.25;5032338;28;20276;-50
2022/10/23 06:04:42;;;;;;;15.13;6.47;;;;;;;24.26;100.00;100916.28;5002054;28;20268;-52
2022/10/23 06:07:28;;;;;;;19.70;7.23;;;;;;;24.24;100.00;100915.75;5006253;28;20264;-49
2022/10/23 06:09:55;;;;;;;12.87;7.03;;;;;;;24.62;100.00;100921.41;5021008;28;20257;-51
2022/10/23 06:12:21;;;;;;;15.65;7.72;;;;;;;24.48;100.00;100904.88;5028401;28;20751;-48
2022/10/23 06:14:49;;;;;;;18.40;6.93;;;;;;;25.07;100.00;100913.03;5006029;28;20026;-48
2022/10/23 06:17:15;;;;;;;14.93;6.78;;;;;;;24.38;100.00;100897.59;5021907;28;20287;-50
2022/10/23 06:19:44;;;;;;;16.23;7.17;;;;;;;24.51;100.00;100904.28;5009086;28;20038;-50
2022/10/23 06:22:09;;;;;;;23.70;7.20;;;;;;;24.24;100.00;100910.28;5000277;28;20281;-51
2022/10/23 06:24:45;;;;;;;12.47;6.43;;;;;;;24.36;100.00;100902.53;5007738;28;20268;-51
2022/10/23 06:27:16;;;;;;;15.97;7.10;;;;;;;24.38;100.00;100897.59;5021004;28;20816;-49
2022/10/23 06:29:44;;;;;;;21.23;8.00;;;;;;;24.67;100.00;100899.47;5031521;28;20265;-48
2022/10/23 06:32:10;;;;;;;22.13;7.57;;;;;;;24.25;100.00;100890.88;5013142;28;20279;-48
2022/10/23 06:34:37;;;;;;;23.67;7.43;;;;;;;24.47;100.00;100893.13;5006657;28;20041;-51
2022/10/23 06:37:05;;;;;;;13.90;6.73;;;;;;;24.35;100.00;100887.22;5020152;28;20265;-49
2022/10/23 06:39:55;;;;;;;19.67;7.63;;;;;;;24.36;100.00;100880.66;4997917;28;20277;-48
2022/10/23 06:42:29;;;;;;;17.97;7.77;;;;;;;24.35;100.00;100884.50;4997751;28;20281;-47
2022/10/23 06:44:55;;;;;;;15.32;7.53;;;;;;;24.34;100.00;100882.88;4996603;28;20275;-49
2022/10/23 06:47:39;;;;;;;17.27;6.37;;;;;;;24.55;100.00;100877.19;4998234;28;20034;-47
2022/10/23 06:50:44;;;;;;;20.60;7.43;;;;;;;24.64;100.00;100880.91;5009518;28;20355;-50
2022/10/23 06:53:13;;;;;;;21.90;7.17;;;;;;;24.15;100.00;100869.91;5004897;28;20275;-49
2022/10/23 06:55:45;;;;;;;15.73;7.07;;;;;;;24.22;100.00;100858.66;5015323;28;20269;-50
2022/10/23 06:58:12;;;;;;;15.82;7.40;;;;;;;24.26;100.00;100867.09;4992248;28;20276;-52
2022/10/23 07:00:53;;;;;;;19.50;7.43;;;;;;;24.36;100.00;100864.25;5021386;28;20038;-50
2022/10/23 07:03:18;;;;;;;14.33;6.70;;;;;;;24.27;100.00;100864.06;4989322;28;20281;-52
2022/10/23 07:05:46;;;;;;;19.58;7.10;;;;;;;24.66;100.00;100862.31;4992941;28;20038;-53
2022/10/23 07:08:13;;;;;;;20.57;7.10;;;;;;;24.31;100.00;100869.78;4998299;28;20035;-52
2022/10/23 07:10:44;;;;;;;14.13;6.93;;;;;;;24.90;100.00;100876.00;5006156;28;20299;-48
2022/10/23 07:13:10;;;;;;;17.10;7.03;;;;;;;24.16;100.00;100877.00;5004668;28;20299;-46
2022/10/23 07:15:39;;;;;;;21.33;7.00;;;;;;;24.13;100.00;100871.31;5014090;28;20276;-51
2022/10/23 07:18:13;;;;;;;12.33;6.50;;;;;;;24.25;100.00;100857.28;5004979;28;20794;-47
2022/10/23 07:20:59;;;;;;;16.37;6.97;;;;;;;24.16;100.00;100855.16;4990805;28;20285;-52
2022/10/23 07:23:24;;;;;;;13.60;6.47;;;;;;;24.30;100.00;100862.69;5004749;28;20352;-50
2022/10/23 07:25:50;;;;;;;22.10;7.05;;;;;;;24.17;100.00;100862.25;5008268;28;20035;-48
2022/10/23 07:28:21;;;;;;;19.67;7.43;;;;;;;24.36;100.00;100864.25;4996239;28;20049;-49
2022/10/23 07:30:57;;;;;;;13.85;7.57;;;;;;;24.51;100.00;100857.81;4996249;28;20050;-49
2022/10/23 07:33:26;;;;;;;12.60;6.33;;;;;;;24.49;100.00;100863.59;5015467;28;20053;-49
2022/10/23 07:36:07;;;;;;;15.30;6.73;;;;;;;25.19;100.00;100858.69;4989565;28;20042;-53
2022/10/23 07:38:34;;;;;;;19.17;6.53;;;;;;;24.69;100.00;100848.06;4981375;28;20298;-49
2022/10/23 07:41:00;;;;;;;14.73;6.67;;;;;;;24.39;100.00;100850.00;4995678;28;20035;-50
2022/10/23 07:43:26;;;;;;;15.18;6.30;;;;;;;24.62;100.00;100844.84;5008038;28;20038;-47
2022/10/23 07:45:53;;;;;;;13.52;5.30;;;;;;;24.80;100.00;100842.50;4998686;28;20043;-47
2022/10/23 07:48:26;;;;;;;17.33;5.90;;;;;;;24.38;100.00;100842.13;5006134;28;20042;-48
2022/10/23 07:51:06;;;;;;;10.93;6.13;;;;;;;24.33;100.00;100840.25;5002576;28;20061;-47
2022/10/23 07:53:35;;;;;;;19.20;6.13;;;;;;;24.05;100.00;100843.50;4996571;28;20350;-49
2022/10/23 07:56:16;;;;;;;19.03;6.33;;;;;;;25.41;100.00;100843.59;5010021;28;20129;-50
2022/10/23 07:59:13;;;;;;;13.53;6.07;;;;;;;25.14;100.00;100834.13;4996371;28;20280;-51
2022/10/23 08:01:42;;;;;;;12.80;5.47;;;;;;;24.97;100.00;100834.63;4992218;28;20612;-50
2022/10/23 08:04:09;;;;;;;21.03;6.23;;;;;;;25.15;100.00;100843.19;4987405;28;20334;-49
2022/10/23 08:06:42;;;;;;;10.17;6.30;;;;;;;25.19;100.00;100836.00;5002399;28;20276;-52
2022/10/23 08:09:08;;;;;;;17.27;6.38;;;;;;;25.09;100.00;100836.94;4998870;28;20079;-48
2022/10/23 08:11:37;;;;;;;10.80;5.57;;;;;;;25.13;100.00;100837.97;4994454;28;20043;-47
2022/10/23 08:14:07;;;;;;;14.87;6.47;;;;;;;24.88;100.00;100830.91;4997250;28;20657;-50
2022/10/23 08:16:35;;;;;;;17.07;5.90;;;;;;;25.22;100.00;100832.66;4998261;28;20037;-49
2022/10/23 08:19:13;;;;;;;15.67;6.23;;;;;;;25.31;100.00;100828.16;5000180;28;20054;-52
2022/10/23 08:21:40;;;;;;;10.07;5.53;;;;;;;25.26;100.00;100830.97;5003764;28;20027;-50
2022/10/23 08:24:06;;;;;;;14.07;5.43;;;;;;;25.49;100.00;100823.00;4992027;28;20045;-53
2022/10/23 08:26:32;;;;;;;10.43;5.75;;;;;;;25.82;100.00;100825.75;4998459;28;20038;-53
2022/10/23 08:28:58;;;;;;;18.23;5.45;;;;;;;25.43;100.00;100824.16;5006057;28;20038;-54
2022/10/23 08:31:25;;;;;;;15.90;5.70;;;;;;;25.50;100.00;100815.63;4977923;28;20061;-52
2022/10/23 08:34:26;;;;;;;15.63;6.03;;;;;;;25.39;100.00;100806.72;4977550;28;21719;-49
2022/10/23 08:36:53;;;;;;;12.23;5.00;;;;;;;25.56;100.00;100811.69;4989078;28;20046;-50
2022/10/23 08:39:18;;;;;;;16.35;5.97;;;;;;;25.53;100.00;100812.28;4985275;28;20039;-51
2022/10/23 08:42:04;;;;;;;17.00;5.20;;;;;;;25.22;100.00;100801.75;4967445;28;20077;-52
2022/10/23 08:44:49;;;;;;;9.23;4.43;;;;;;;28.42;100.00;100794.34;4978994;28;20039;-49
2022/10/23 08:47:25;;;;;;;12.83;4.97;;;;;;;26.22;100.00;100798.00;4972985;28;20045;-48
2022/10/23 08:50:25;;;;;;;9.63;4.27;;;;;;;25.68;100.00;100800.25;5006963;28;20051;-50
2022/10/23 08:52:57;;;;;;;14.87;5.10;;;;;;;26.01;100.00;100801.06;4989749;28;20043;-51
2022/10/23 08:55:31;;;;;;;13.30;4.93;;;;;;;25.88;100.00;100799.94;4985487;28;20031;-53
2022/10/23 08:58:20;;;;;;;8.20;4.40;;;;;;;28.10;84.39;100807.28;4985734;28;20039;-52
2022/10/23 09:00:48;;;;;;;10.87;4.87;;;;;;;26.23;100.00;100796.03;4983203;28;20043;-49
2022/10/23 09:03:14;;;;;;;12.83;4.27;;;;;;;26.13;100.00;100795.09;4984999;28;20039;-55
2022/10/23 09:06:08;;;;;;;9.70;4.18;;;;;;;25.91;100.00;100785.63;4987781;28;21641;-51
2022/10/23 09:08:50;;;;;;;12.27;4.53;;;;;;;26.03;100.00;100773.34;4986242;28;20031;-50
2022/10/23 09:11:37;;;;;;;11.50;4.97;;;;;;;26.14;100.00;100774.81;4987839;28;20047;-52
2022/10/23 09:14:40;;;;;;;9.87;4.77;;;;;;;25.59;100.00;100780.97;4987654;28;20098;-51
2022/10/23 09:17:23;;;;;;;9.60;4.20;;;;;;;25.90;100.00;100778.53;4987045;28;20034;-50
2022/10/23 09:19:57;;;;;;;15.57;4.70;;;;;;;26.44;100.00;100772.59;4985750;28;20050;-53
2022/10/23 09:22:23;;;;;;;11.47;4.23;;;;;;;26.37;100.00;100763.16;4987712;28;20617;-51
2022/10/23 09:24:49;;;;;;;10.07;4.70;;;;;;;26.26;100.00;100765.28;4987094;28;20039;-53
2022/10/23 09:27:16;;;;;;;9.70;4.87;;;;;;;26.70;100.00;100757.56;4991255;28;20035;-51
2022/10/23 09:29:53;;;;;;;8.70;4.60;;;;;;;26.27;100.00;100747.72;4994270;28;20033;-52
2022/10/23 09:32:19;;;;;;;;;;;;;;;26.65;100.00;100753.00;4989054;28;20054;-54
2022/10/23 09:34:53;;;;;;;13.03;4.23;;;;;;;26.48;100.00;100742.66;4990195;28;19922;-50
2022/10/23 09:37:25;;;;;;;18.73;4.40;;;;;;;26.28;100.00;100738.38;4987085;28;20047;-50
2022/10/23 09:40:16;;;;;;;8.57;4.33;;;;;;;26.68;100.00;100740.59;4984044;28;20023;-51
2022/10/23 09:43:03;;;;;;;11.70;4.50;;;;;;;26.74;100.00;100731.13;4986275;28;20058;-54
2022/10/23 09:45:34;;;;;;;11.83;3.73;;;;;;;26.23;100.00;100725.63;4972777;28;20038;-50
2022/10/23 09:48:15;;;;;;;8.53;4.60;;;;;;;26.38;100.00;100742.84;4975047;28;20039;-49
2022/10/23 09:50:47;;;;;;;11.03;3.70;;;;;;;26.52;100.00;100734.59;4986850;28;20051;-49
2022/10/23 09:53:21;;;;;;;7.10;3.87;;;;;;;26.88;100.00;100729.22;4985820;28;20086;-52
2022/10/23 09:55:52;;;;;;;8.97;4.10;;;;;;;26.67;100.00;100720.59;4989949;28;20039;-52
2022/10/23 09:58:42;;;;;;;9.90;4.10;;;;;;;26.77;100.00;100723.13;4989036;28;20062;-52
2022/10/23 10:01:22;;;;;;;9.40;4.83;;;;;;;26.76;100.00;100724.25;4988446;28;20039;-51
2022/10/23 10:03:51;;;;;;;13.87;4.70;;;;;;;26.76;100.00;100710.53;4984106;28;20048;-53
2022/10/23 10:06:31;;;;;;;8.90;3.90;;;;;;;26.47;100.00;100695.22;4983536;28;20037;-52
2022/10/23 10:09:02;;;;;;;8.53;4.13;;;;;;;26.05;100.00;100692.50;4985920;28;20099;-50
2022/10/23 10:11:52;;;;;;;10.63;3.63;;;;;;;27.01;100.00;100694.63;4988635;28;20058;-50
2022/10/23 10:14:42;;;;;;;8.57;4.37;;;;;;;26.48;100.00;100694.09;4993199;28;20050;-50
2022/10/23 10:17:34;;;;;;;7.37;4.03;;;;;;;27.03;100.00;100695.13;4986457;28;20059;-51
2022/10/23 10:20:05;;;;;;;7.33;4.20;;;;;;;27.31;98.67;100686.75;4989684;28;20051;-50
2022/10/23 10:22:46;;;;;;;12.00;3.40;;;;;;;27.68;96.64;100694.91;4988617;28;20049;-51
2022/10/23 10:25:31;;;;;;;10.03;4.30;;;;;;;27.25;98.78;100687.19;4993560;28;20054;-51
2022/10/23 10:28:36;;;;;;;10.73;3.60;;;;;;;27.17;99.33;100678.59;4987119;28;20039;-52
2022/10/23 10:31:45;;;;;;;11.87;3.93;;;;;;;27.11;100.00;100666.13;4990484;28;20040;-53
2022/10/23 10:34:33;;;;;;;11.53;4.03;;;;;;;27.67;97.38;100665.00;4988428;28;20050;-49
2022/10/23 10:37:29;;;;;;;10.70;3.60;;;;;;;27.90;94.33;100654.75;4992788;28;20036;-52
2022/10/23 10:40:02;;;;;;;10.90;4.00;;;;;;;27.53;96.36;100659.59;4986422;28;20038;-52
2022/10/23 10:42:57;;;;;;;8.47;3.43;;;;;;;28.13;92.79;100643.66;4987946;28;20107;-48
2022/10/23 10:45:31;;;;;;;10.67;4.20;;;;;;;27.91;94.32;100639.88;4987351;28;20062;-48
2022/10/23 10:48:34;;;;;;;7.27;3.50;;;;;;;28.54;90.37;100647.16;4989620;28;20046;-51
2022/10/23 10:51:42;;;;;;;14.48;3.58;;;;;;;28.22;90.91;100641.75;4991526;28;20074;-52
2022/10/23 10:54:29;;;;;;;9.23;3.87;;;;;;;28.48;89.01;100647.31;4985986;28;20122;-53
2022/10/23 10:56:59;;;;;;;12.30;3.43;;;;;;;28.44;89.77;100640.84;4989572;28;20031;-52
2022/10/23 10:59:29;;;;;;;7.10;4.00;;;;;;;28.27;90.93;100627.06;4985333;28;20120;-52
2022/10/23 11:02:02;;;;;;;8.97;3.07;;;;;;;28.30;89.85;100621.75;4987162;28;20106;-53
2022/10/23 11:04:46;;;;;;;10.60;3.70;;;;;;;28.93;86.29;100619.81;4987229;28;20106;-54
2022/10/23 11:07:16;;;;;;;12.70;3.97;;;;;;;34.89;69.56;100641.78;4984914;28;20557;-55
2022/10/23 11:09:42;;;;;;;9.50;3.30;;;;;;;32.08;80.69;100631.59;4986802;28;20027;-51
2022/10/23 11:12:18;;;;;;;9.20;3.47;;;;;;;28.90;86.47;100627.56;4987873;28;20045;-46
2022/10/23 11:14:43;;;;;;;8.50;3.20;;;;;;;29.22;85.56;100626.56;4990800;28;20034;-53
2022/10/23 11:17:17;;;;;;;12.95;4.07;;;;;;;30.21;79.63;100618.38;4997378;28;20050;-53
2022/10/23 11:19:56;;;;;;;17.00;3.47;;;;;;;29.38;83.51;100610.31;4997048;28;20042;-48
2022/10/23 11:22:50;;;;;;;15.27;3.30;;;;;;;29.79;81.77;100600.59;4993401;28;20053;-53
2022/10/23 11:25:47;;;;;;;9.83;2.97;;;;;;;29.45;82.69;100599.63;4991876;28;20046;-51
2022/10/23 11:28:43;;;;;;;13.13;4.20;;;;;;;30.34;77.50;100603.50;4992312;28;20053;-53
2022/10/23 11:31:34;;;;;;;11.87;3.90;;;;;;;31.30;74.46;100585.25;4985608;28;20028;-52
2022/10/23 11:34:32;;;;;;;7.70;3.47;;;;;;;30.61;76.66;100571.03;4991691;28;20031;-52
2022/10/23 11:37:00;;;;;;;6.82;2.80;;;;;;;31.66;71.76;100582.84;4990625;28;20031;-51
2022/10/23 11:39:28;;;;;;;6.33;2.97;;;;;;;31.03;73.83;100576.44;4993790;28;20045;-50
2022/10/23 11:42:04;;;;;;;9.60;2.43;;;;;;;30.26;76.86;100563.03;4999678;28;20027;-49